sensor_id;sensor_type;location;lat;lon;timestamp;pressure;altitude;pressure_sealevel;temperature;humidity
40155;BME280;25875;48.202;16.334;2022-09-14T18:30:48;97801.28;;;20.52;66.24
40155;BME280;25875;48.202;16.334;2022-09-14T18:33:15;97799.50;;;20.59;66.05
40155;BME280;25875;48.202;16.334;2022-09-14T18:35:43;97829.94;;;20.89;65.38
40155;BME280;25875;48.202;16.334;2022-09-14T18:38:11;97874.25;;;21.16;66.08
40155;BME280;25875;48.202;16.334;2022-09-14T18:40:38;97875.19;;;21.23;66.32
40155;BME280;25875;48.202;16.334;2022-09-14T18:43:06;97867.38;;;21.28;66.71
40155;BME280;25875;48.202;16.334;2022-09-14T18:45:35;97806.63;;;20.96;66.20
40155;BME280;25875;48.202;16.334;2022-09-14T18:48:04;97861.69;;;21.38;66.41
40155;BME280;25875;48.202;16.334;2022-09-14T18:50:32;97859.44;;;21.41;66.67
40155;BME280;25875;48.202;16.334;2022-09-14T18:52:59;97867.97;;;21.45;66.67
40155;BME280;25875;48.202;16.334;2022-09-14T18:55:26;97874.66;;;21.49;66.69
40155;BME280;25875;48.202;16.334;2022-09-14T18:57:54;97807.03;;;21.08;67.13
40155;BME280;25875;48.202;16.334;2022-09-14T19:00:21;97685.94;;;20.34;67.12
40155;BME280;25875;48.202;16.334;2022-09-14T19:02:50;97885.16;;;21.59;67.11
40155;BME280;25875;48.202;16.334;2022-09-14T19:05:21;97887.66;;;21.60;67.24
40155;BME280;25875;48.202;16.334;2022-09-14T19:07:48;97879.38;;;21.62;67.23
40155;BME280;25875;48.202;16.334;2022-09-14T19:10:16;97838.06;;;21.40;66.95
40155;BME280;25875;48.202;16.334;2022-09-14T19:12:43;97888.09;;;21.64;67.32
40155;BME280;25875;48.202;16.334;2022-09-14T19:15:11;97792.34;;;21.10;67.33
40155;BME280;25875;48.202;16.334;2022-09-14T19:17:38;97865.91;;;21.62;67.51
40155;BME280;25875;48.202;16.334;2022-09-14T19:20:06;97712.34;;;20.75;67.49
40155;BME280;25875;48.202;16.334;2022-09-14T19:22:37;97848.50;;;21.64;67.47
40155;BME280;25875;48.202;16.334;2022-09-14T19:25:05;97856.41;;;21.66;67.37
40155;BME280;25875;48.202;16.334;2022-09-14T19:27:33;97884.00;;;21.68;67.53
40155;BME280;25875;48.202;16.334;2022-09-14T19:30:02;97878.75;;;21.45;67.46
40155;BME280;25875;48.202;16.334;2022-09-14T19:32:30;97935.41;;;21.66;68.03
40155;BME280;25875;48.202;16.334;2022-09-14T19:34:59;97960.72;;;21.65;68.51
40155;BME280;25875;48.202;16.334;2022-09-14T19:37:28;97978.94;;;21.49;68.99
40155;BME280;25875;48.202;16.334;2022-09-14T19:39:57;98037.78;;;21.45;70.43
40155;BME280;25875;48.202;16.334;2022-09-14T19:42:25;98040.53;;;21.22;71.61
40155;BME280;25875;48.202;16.334;2022-09-14T19:44:53;98086.34;;;21.22;71.97
40155;BME280;25875;48.202;16.334;2022-09-14T19:47:22;98094.25;;;21.24;72.14
40155;BME280;25875;48.202;16.334;2022-09-14T19:49:49;98085.59;;;21.13;71.79
40155;BME280;25875;48.202;16.334;2022-09-14T19:52:17;98111.31;;;21.16;72.36
40155;BME280;25875;48.202;16.334;2022-09-14T19:54:44;98101.19;;;20.95;73.80
40155;BME280;25875;48.202;16.334;2022-09-14T19:57:13;98134.16;;;21.05;74.18
40155;BME280;25875;48.202;16.334;2022-09-14T19:59:40;98135.50;;;21.01;74.28
40155;BME280;25875;48.202;16.334;2022-09-14T20:02:08;98128.25;;;21.02;74.46
40155;BME280;25875;48.202;16.334;2022-09-14T20:04:36;98106.56;;;21.03;73.63
40155;BME280;25875;48.202;16.334;2022-09-14T20:07:04;98112.41;;;21.07;74.21
40155;BME280;25875;48.202;16.334;2022-09-14T20:09:32;98115.09;;;21.07;73.87
40155;BME280;25875;48.202;16.334;2022-09-14T20:12:00;98099.97;;;21.06;74.30
40155;BME280;25875;48.202;16.334;2022-09-14T20:14:29;98095.78;;;21.03;75.11
40155;BME280;25875;48.202;16.334;2022-09-14T20:16:58;98054.16;;;20.83;75.48
40155;BME280;25875;48.202;16.334;2022-09-14T20:19:27;98061.09;;;21.00;74.89
